Time;durP1;ratioP1;P1;durP2;ratioP2;P2;SDS_P1;SDS_P2;PMS_P1;PMS_P2;Temp;Humidity;BMP_temperature;BMP_pressure;BME280_temperature;BME280_humidity;BME280_pressure;Samples;Min_cycle;Max_cycle;Signal;HPM_P1;HPM_P2
2022/07/27 00:02:20;;;;;;;0.00;0.00;;;23.50;59.20;;;;;;4176916;28;20476;-68
2022/07/27 00:04:43;;;;;;;0.00;0.00;;;23.50;59.30;;;;;;4176325;28;20531;-68
2022/07/27 00:07:05;;;;;;;0.00;0.00;;;23.50;59.30;;;;;;4191910;28;20098;-69
2022/07/27 00:09:27;;;;;;;0.00;0.00;;;23.50;59.40;;;;;;4184413;28;20129;-68
2022/07/27 00:11:53;;;;;;;0.00;0.00;;;23.50;59.30;;;;;;4192942;28;20056;-69
2022/07/27 00:14:15;;;;;;;0.10;0.10;;;23.50;59.30;;;;;;4191911;28;20476;-70
2022/07/27 00:16:37;;;;;;;0.00;0.00;;;23.50;59.30;;;;;;4192723;28;20488;-69
2022/07/27 00:19:00;;;;;;;0.20;0.20;;;23.50;59.40;;;;;;4192780;28;20044;-70
2022/07/27 00:21:23;;;;;;;0.00;0.00;;;23.50;59.30;;;;;;4192939;28;20132;-69
2022/07/27 00:23:45;;;;;;;0.00;0.00;;;23.50;59.30;;;;;;4192436;28;20098;-68
2022/07/27 00:26:07;;;;;;;0.00;0.00;;;23.50;59.30;;;;;;4193078;28;20376;-68
2022/07/27 00:28:30;;;;;;;0.00;0.00;;;23.50;59.30;;;;;;4192206;28;20144;-67
2022/07/27 00:30:52;;;;;;;0.00;0.00;;;23.40;59.20;;;;;;4176272;28;20565;-68
2022/07/27 00:33:14;;;;;;;0.00;0.00;;;23.40;59.30;;;;;;4176267;28;20389;-67
2022/07/27 00:35:38;;;;;;;0.00;0.00;;;23.40;59.30;;;;;;4191155;28;20147;-68
2022/07/27 00:38:00;;;;;;;0.00;0.00;;;23.40;59.30;;;;;;4177226;28;20060;-68
2022/07/27 00:40:22;;;;;;;0.00;0.00;;;23.40;59.30;;;;;;4176160;28;20434;-68
2022/07/27 00:42:44;;;;;;;0.00;0.00;;;23.40;59.30;;;;;;4176989;28;20132;-68
2022/07/27 00:45:09;;;;;;;0.00;0.00;;;23.40;59.40;;;;;;4188763;28;20128;-68
2022/07/27 00:47:34;;;;;;;0.00;0.00;;;23.40;59.40;;;;;;4191217;28;20545;-68
2022/07/27 00:49:57;;;;;;;0.00;0.00;;;23.40;59.40;;;;;;4191001;28;20060;-69
2022/07/27 00:52:21;;;;;;;0.00;0.00;;;23.30;59.40;;;;;;4191504;28;20372;-68
2022/07/27 00:54:44;;;;;;;0.00;0.00;;;23.40;59.40;;;;;;4189832;28;20899;-69
2022/07/27 00:57:09;;;;;;;0.00;0.00;;;23.30;59.40;;;;;;4191573;28;20097;-68
2022/07/27 00:59:32;;;;;;;0.00;0.00;;;23.30;59.50;;;;;;4192228;28;20090;-69
2022/07/27 01:01:55;;;;;;;0.00;0.00;;;23.30;59.50;;;;;;4190267;28;20131;-69
2022/07/27 01:04:17;;;;;;;0.00;0.00;;;23.30;59.60;;;;;;4192383;28;20058;-70
2022/07/27 01:06:39;;;;;;;0.00;0.00;;;23.30;59.60;;;;;;4191325;28;20055;-69
2022/07/27 01:11:37;;;;;;;0.00;0.00;;;23.30;59.70;;;;;;4191720;28;20695;-69
2022/07/27 01:13:59;;;;;;;0.00;0.00;;;23.30;59.70;;;;;;4192327;28;20055;-69
2022/07/27 01:16:21;;;;;;;0.00;0.00;;;23.30;59.70;;;;;;4192241;28;20067;-69
2022/07/27 01:18:44;;;;;;;0.00;0.00;;;23.30;59.80;;;;;;4191940;28;20049;-69
2022/07/27 01:21:08;;;;;;;4.47;1.38;;;23.30;59.80;;;;;;4176795;28;20099;-69
2022/07/27 01:23:32;;;;;;;0.00;0.00;;;23.30;59.80;;;;;;4173722;28;20084;-68
2022/07/27 01:25:54;;;;;;;0.00;0.00;;;23.30;59.80;;;;;;4192252;28;20052;-68
2022/07/27 01:28:16;;;;;;;0.00;0.00;;;23.30;59.80;;;;;;4190193;28;20057;-68
2022/07/27 01:30:38;;;;;;;0.00;0.00;;;23.30;59.80;;;;;;4191682;28;20066;-68
2022/07/27 01:33:01;;;;;;;0.00;0.00;;;23.30;59.90;;;;;;4190490;28;20051;-68
2022/07/27 01:35:23;;;;;;;0.00;0.00;;;23.30;60.00;;;;;;4192311;28;20036;-69
2022/07/27 01:37:45;;;;;;;0.00;0.00;;;23.30;60.00;;;;;;4191638;28;20083;-68
2022/07/27 01:40:10;;;;;;;0.00;0.00;;;23.30;60.00;;;;;;4192028;28;20044;-68
2022/07/27 01:42:32;;;;;;;0.00;0.00;;;23.30;60.10;;;;;;4173555;28;20055;-62
2022/07/27 01:44:54;;;;;;;0.00;0.00;;;23.30;60.00;;;;;;4175084;28;20053;-61
2022/07/27 01:47:17;;;;;;;0.90;0.65;;;23.30;60.00;;;;;;4175123;28;20128;-62
2022/07/27 01:49:39;;;;;;;0.00;0.00;;;23.20;60.00;;;;;;4180359;28;20049;-61
2022/07/27 01:52:01;;;;;;;0.00;0.00;;;23.20;60.00;;;;;;4191533;28;20078;-62
2022/07/27 01:54:23;;;;;;;0.00;0.00;;;23.20;60.00;;;;;;4191726;28;20446;-61
2022/07/27 01:56:46;;;;;;;0.00;0.00;;;23.20;60.10;;;;;;4192383;28;20052;-61
2022/07/27 01:59:09;;;;;;;0.00;0.00;;;23.20;60.00;;;;;;4192655;28;20102;-61
2022/07/27 02:01:37;;;;;;;0.00;0.00;;;23.20;60.10;;;;;;4195080;28;20052;-61
2022/07/27 02:03:59;;;;;;;0.00;0.00;;;23.20;60.10;;;;;;4194998;28;20075;-61
2022/07/27 02:06:22;;;;;;;0.00;0.00;;;23.20;60.10;;;;;;4195039;28;20509;-62
2022/07/27 02:08:44;;;;;;;0.00;0.00;;;23.20;60.50;;;;;;4179349;28;20111;-61
2022/07/27 02:13:48;;;;;;;0.00;0.00;;;23.20;60.20;;;;;;4193430;28;20135;-61
2022/07/27 02:16:10;;;;;;;0.00;0.00;;;23.20;60.20;;;;;;4194361;28;20057;-61
2022/07/27 02:18:37;;;;;;;0.00;0.00;;;23.20;60.30;;;;;;4193967;28;20102;-62
2022/07/27 02:20:59;;;;;;;0.00;0.00;;;23.20;61.10;;;;;;4193671;28;20059;-61
2022/07/27 02:23:21;;;;;;;0.00;0.00;;;23.10;60.20;;;;;;4194538;28;20455;-62
2022/07/27 02:25:44;;;;;;;0.00;0.00;;;23.10;60.20;;;;;;4194780;28;20133;-61
2022/07/27 02:28:06;;;;;;;0.00;0.00;;;23.10;60.20;;;;;;4193940;28;20467;-61
2022/07/27 02:30:30;;;;;;;0.00;0.00;;;23.10;60.30;;;;;;4194349;28;20525;-68
2022/07/27 02:32:51;;;;;;;0.00;0.00;;;23.10;60.30;;;;;;4194250;28;20560;-67
2022/07/27 02:35:14;;;;;;;0.00;0.00;;;23.10;60.30;;;;;;4194822;28;20479;-67
2022/07/27 02:37:40;;;;;;;0.05;0.05;;;23.10;60.30;;;;;;4193746;28;20052;-61
2022/07/27 02:40:02;;;;;;;0.00;0.00;;;23.10;60.30;;;;;;4176776;28;20045;-61
2022/07/27 02:42:24;;;;;;;0.00;0.00;;;23.10;61.10;;;;;;4177943;28;20506;-62
2022/07/27 02:44:47;;;;;;;0.00;0.00;;;23.00;60.30;;;;;;4193092;28;20052;-61
2022/07/27 02:47:11;;;;;;;0.00;0.00;;;23.10;60.40;;;;;;4193492;28;20040;-61
2022/07/27 02:49:32;;;;;;;0.00;0.00;;;23.00;60.30;;;;;;4167244;28;20495;-61
2022/07/27 02:51:55;;;;;;;0.00;0.00;;;23.10;60.40;;;;;;4188509;28;20131;-61
2022/07/27 02:54:17;;;;;;;0.00;0.00;;;23.00;60.30;;;;;;4160627;28;20147;-62
2022/07/27 02:56:39;;;;;;;0.00;0.00;;;23.00;61.20;;;;;;4177530;28;20476;-61
2022/07/27 02:59:01;;;;;;;0.00;0.00;;;23.00;60.30;;;;;;4192746;28;20136;-61
2022/07/27 03:01:23;;;;;;;0.00;0.00;;;23.00;60.30;;;;;;4175350;28;20112;-61
2022/07/27 03:03:47;;;;;;;0.13;0.13;;;23.00;60.30;;;;;;4177469;28;20059;-62
2022/07/27 03:06:10;;;;;;;0.00;0.00;;;23.00;60.30;;;;;;4176907;28;20047;-69
2022/07/27 03:08:32;;;;;;;0.00;0.00;;;23.00;60.40;;;;;;4192299;28;20136;-68
2022/07/27 03:10:55;;;;;;;0.00;0.00;;;23.00;60.40;;;;;;4192847;28;20488;-68
2022/07/27 03:13:16;;;;;;;0.00;0.00;;;23.00;60.50;;;;;;4177439;28;20492;-68
2022/07/27 03:15:38;;;;;;;0.00;0.00;;;23.00;61.40;;;;;;4177427;28;20049;-69
2022/07/27 03:18:01;;;;;;;0.00;0.00;;;23.00;60.50;;;;;;4192339;28;20515;-68
2022/07/27 03:20:24;;;;;;;0.00;0.00;;;22.90;60.40;;;;;;4177016;28;20052;-69
2022/07/27 03:22:46;;;;;;;0.00;0.00;;;23.00;60.50;;;;;;4177022;28;20053;-69
2022/07/27 03:25:10;;;;;;;0.00;0.00;;;22.90;60.50;;;;;;4178419;28;20095;-67
2022/07/27 03:27:32;;;;;;;0.00;0.00;;;22.90;60.60;;;;;;4178021;28;20071;-69
2022/07/27 03:29:54;;;;;;;0.00;0.00;;;22.90;60.60;;;;;;4176944;28;20850;-68
2022/07/27 03:32:19;;;;;;;0.00;0.00;;;22.90;60.60;;;;;;4192379;28;20086;-69
2022/07/27 03:34:41;;;;;;;0.00;0.00;;;22.90;60.60;;;;;;4192117;28;20515;-68
2022/07/27 03:37:05;;;;;;;0.00;0.00;;;22.90;60.60;;;;;;4192137;28;20041;-69
2022/07/27 03:39:27;;;;;;;0.00;0.00;;;22.90;60.70;;;;;;4191498;28;20135;-68
2022/07/27 03:41:53;;;;;;;0.00;0.00;;;22.90;60.70;;;;;;4193204;28;20131;-69
2022/07/27 03:44:15;;;;;;;0.08;0.08;;;22.90;60.70;;;;;;4192757;28;20388;-69
2022/07/27 03:46:37;;;;;;;0.00;0.00;;;22.90;60.70;;;;;;4176540;28;20350;-64
2022/07/27 03:48:59;;;;;;;0.20;0.20;;;22.90;60.70;;;;;;4176006;28;20055;-63
2022/07/27 03:51:21;;;;;;;0.00;0.00;;;22.90;60.70;;;;;;4176600;28;20056;-63
2022/07/27 03:53:44;;;;;;;0.00;0.00;;;22.90;60.70;;;;;;4176291;28;20055;-63
2022/07/27 03:56:07;;;;;;;0.00;0.00;;;22.90;60.70;;;;;;4192168;28;20049;-63
2022/07/27 03:58:29;;;;;;;0.00;0.00;;;22.80;60.70;;;;;;4176405;28;20560;-64
2022/07/27 04:00:51;;;;;;;0.00;0.00;;;22.90;60.90;;;;;;4192710;28;20481;-63
2022/07/27 04:03:13;;;;;;;0.93;0.45;;;22.80;60.70;;;;;;4193091;28;20068;-63
2022/07/27 04:05:36;;;;;;;0.00;0.00;;;22.80;60.70;;;;;;4192243;28;20106;-63
2022/07/27 04:07:57;;;;;;;0.00;0.00;;;22.80;60.70;;;;;;4188959;28;20158;-63
2022/07/27 04:10:21;;;;;;;0.00;0.00;;;22.80;60.70;;;;;;4177072;28;20542;-62
2022/07/27 04:12:43;;;;;;;0.00;0.00;;;22.80;60.80;;;;;;4176533;28;20059;-62
2022/07/27 04:15:06;;;;;;;0.00;0.00;;;22.80;60.80;;;;;;4192525;28;20494;-63
2022/07/27 04:17:28;;;;;;;0.00;0.00;;;22.80;60.80;;;;;;4193137;28;20059;-62
2022/07/27 04:20:11;;;;;;;0.00;0.00;;;22.80;60.80;;;;;;4192355;28;20044;-61
2022/07/27 04:22:33;;;;;;;0.00;0.00;;;22.80;60.80;;;;;;4192578;28;20139;-62
2022/07/27 04:24:55;;;;;;;0.00;0.00;;;22.80;60.80;;;;;;4177038;28;20048;-62
2022/07/27 04:27:18;;;;;;;0.00;0.00;;;22.80;60.80;;;;;;4191435;28;20072;-63
2022/07/27 04:29:41;;;;;;;0.05;0.05;;;22.80;60.90;;;;;;4176185;28;20059;-62
2022/07/27 04:32:03;;;;;;;0.00;0.00;;;22.80;60.90;;;;;;4176037;28;20447;-62
2022/07/27 04:34:25;;;;;;;0.00;0.00;;;22.80;60.90;;;;;;4177417;28;20044;-61
2022/07/27 04:36:48;;;;;;;0.20;0.20;;;22.80;60.80;;;;;;4175836;28;20135;-62
2022/07/27 04:39:11;;;;;;;0.60;0.60;;;22.80;60.80;;;;;;4191439;28;20095;-62
2022/07/27 04:41:34;;;;;;;0.00;0.00;;;22.80;60.70;;;;;;4192023;28;20075;-62
2022/07/27 04:43:58;;;;;;;0.00;0.00;;;22.80;61.60;;;;;;4183420;28;20054;-62
2022/07/27 04:46:21;;;;;;;0.00;0.00;;;22.80;60.80;;;;;;4174705;28;20047;-62
2022/07/27 04:48:44;;;;;;;0.00;0.00;;;22.80;60.80;;;;;;4180322;28;20068;-62
2022/07/27 04:51:13;;;;;;;0.00;0.00;;;22.80;60.80;;;;;;4175395;28;20094;-62
2022/07/27 04:53:36;;;;;;;0.00;0.00;;;22.80;60.80;;;;;;4176877;28;20526;-62
2022/07/27 04:55:58;;;;;;;0.00;0.00;;;22.80;60.90;;;;;;4175682;28;20059;-62
2022/07/27 04:58:20;;;;;;;0.00;0.00;;;22.80;60.80;;;;;;4190816;28;20543;-61
2022/07/27 05:00:43;;;;;;;0.00;0.00;;;22.80;60.90;;;;;;4192631;28;20083;-61
2022/07/27 05:03:05;;;;;;;0.00;0.00;;;22.80;60.90;;;;;;4188839;28;20608;-61
2022/07/27 05:05:28;;;;;;;0.00;0.00;;;22.80;60.90;;;;;;4177444;28;20505;-61
2022/07/27 05:07:50;;;;;;;0.00;0.00;;;22.80;61.00;;;;;;4173905;28;20532;-62
2022/07/27 05:10:12;;;;;;;0.00;0.00;;;22.80;61.10;;;;;;4176822;28;20519;-61
2022/07/27 05:12:38;;;;;;;0.00;0.00;;;22.80;61.10;;;;;;4191149;28;20522;-62
2022/07/27 05:15:01;;;;;;;0.00;0.00;;;22.80;61.10;;;;;;4191871;28;20106;-61
2022/07/27 05:17:24;;;;;;;0.00;0.00;;;22.80;61.20;;;;;;4191804;28;20787;-61
2022/07/27 05:19:46;;;;;;;0.00;0.00;;;22.70;61.10;;;;;;4191851;28;20071;-68
2022/07/27 05:22:09;;;;;;;0.00;0.00;;;22.70;61.20;;;;;;4191989;28;20045;-62
2022/07/27 05:24:31;;;;;;;0.00;0.00;;;22.70;61.20;;;;;;4191676;28;20432;-69
2022/07/27 05:26:53;;;;;;;0.00;0.00;;;22.70;61.20;;;;;;4192316;28;20045;-62
2022/07/27 05:29:15;;;;;;;0.00;0.00;;;22.70;61.30;;;;;;4191534;28;20147;-63
2022/07/27 05:31:37;;;;;;;0.00;0.00;;;22.70;61.40;;;;;;4191249;28;20055;-69
2022/07/27 05:34:00;;;;;;;0.00;0.00;;;22.70;61.40;;;;;;4190987;28;20403;-69
2022/07/27 05:36:22;;;;;;;0.00;0.00;;;22.70;61.50;;;;;;4178370;28;20040;-69
2022/07/27 05:38:44;;;;;;;0.35;0.15;;;22.70;61.60;;;;;;4191806;28;20217;-68
2022/07/27 05:41:06;;;;;;;1.02;0.95;;;22.70;61.70;;;;;;4189379;28;20422;-69
2022/07/27 05:43:28;;;;;;;0.05;0.05;;;22.70;61.90;;;;;;4175266;28;20052;-68
2022/07/27 05:45:51;;;;;;;0.00;0.00;;;22.80;62.00;;;;;;4183012;28;20056;-69
2022/07/27 05:48:13;;;;;;;0.00;0.00;;;22.80;62.00;;;;;;4174532;28;20106;-65
2022/07/27 05:50:36;;;;;;;0.00;0.00;;;22.80;62.00;;;;;;4183130;28;20097;-64
2022/07/27 05:52:59;;;;;;;0.00;0.00;;;22.70;61.90;;;;;;4191110;28;20048;-64
2022/07/27 05:55:21;;;;;;;0.00;0.00;;;22.70;62.80;;;;;;4179049;28;20056;-64
2022/07/27 05:57:44;;;;;;;0.00;0.00;;;22.70;61.80;;;;;;4161074;28;20116;-64
2022/07/27 06:00:08;;;;;;;0.00;0.00;;;22.70;61.80;;;;;;4184411;28;20065;-67
2022/07/27 06:02:32;;;;;;;0.00;0.00;;;22.70;61.90;;;;;;4189092;28;20140;-65
2022/07/27 06:04:54;;;;;;;0.15;0.15;;;22.70;61.90;;;;;;4190876;28;20526;-65
2022/07/27 06:09:57;;;;;;;0.00;0.00;;;22.70;61.80;;;;;;4191637;28;20044;-65
2022/07/27 06:12:20;;;;;;;0.00;0.00;;;22.70;61.80;;;;;;4189223;28;20056;-65
2022/07/27 06:14:42;;;;;;;0.00;0.00;;;22.70;61.80;;;;;;4191680;28;20542;-65
2022/07/27 06:17:06;;;;;;;0.00;0.00;;;22.70;61.80;;;;;;4191614;28;20052;-65
2022/07/27 06:19:28;;;;;;;0.00;0.00;;;22.70;61.80;;;;;;4182159;28;20053;-64
2022/07/27 06:21:57;;;;;;;0.00;0.00;;;22.70;61.80;;;;;;4174839;28;20053;-64
2022/07/27 06:24:20;;;;;;;0.00;0.00;;;22.70;61.80;;;;;;4181446;28;21600;-64
2022/07/27 06:26:43;;;;;;;0.45;0.40;;;22.70;61.80;;;;;;4187746;28;20052;-65
2022/07/27 06:29:05;;;;;;;0.00;0.00;;;22.80;61.90;;;;;;4186551;28;20164;-64
2022/07/27 06:31:30;;;;;;;0.00;0.00;;;22.70;61.80;;;;;;4188668;28;20076;-64
2022/07/27 06:33:57;;;;;;;0.00;0.00;;;22.70;61.80;;;;;;4188395;28;20055;-64
2022/07/27 06:36:18;;;;;;;0.00;0.00;;;22.70;61.80;;;;;;4185835;28;20114;-64
2022/07/27 06:38:41;;;;;;;0.00;0.00;;;22.70;61.80;;;;;;4187177;28;20067;-64
2022/07/27 06:41:05;;;;;;;0.00;0.00;;;22.70;61.80;;;;;;4186345;28;20453;-64
2022/07/27 06:43:31;;;;;;;0.38;0.38;;;22.80;61.90;;;;;;4186434;28;20055;-63
2022/07/27 06:45:54;;;;;;;0.00;0.00;;;22.70;61.80;;;;;;4189223;28;20078;-67
2022/07/27 06:48:17;;;;;;;0.52;0.52;;;22.80;61.90;;;;;;4190980;28;20059;-68
2022/07/27 06:50:39;;;;;;;0.10;0.10;;;22.80;61.80;;;;;;4190981;28;20068;-67
2022/07/27 06:53:01;;;;;;;0.00;0.00;;;22.80;61.80;;;;;;4191245;28;20044;-68
2022/07/27 06:55:23;;;;;;;0.00;0.00;;;22.80;61.70;;;;;;4190871;28;20056;-68
2022/07/27 06:57:47;;;;;;;0.00;0.00;;;22.90;61.70;;;;;;4191268;28;20054;-68
2022/07/27 07:00:10;;;;;;;0.00;0.00;;;22.90;61.60;;;;;;4191236;28;20514;-64
2022/07/27 07:02:33;;;;;;;0.00;0.00;;;23.00;61.50;;;;;;4191784;28;20048;-63
2022/07/27 07:04:55;;;;;;;0.00;0.00;;;23.10;61.40;;;;;;4191053;28;20699;-64
2022/07/27 07:07:17;;;;;;;0.00;0.00;;;23.10;61.10;;;;;;4190947;28;20051;-64
2022/07/27 07:09:40;;;;;;;0.05;0.05;;;23.20;60.70;;;;;;4190985;28;20391;-63
2022/07/27 07:12:02;;;;;;;1.05;0.98;;;23.30;60.50;;;;;;4191464;28;20052;-64
2022/07/27 07:14:25;;;;;;;1.80;1.67;;;23.30;61.40;;;;;;4190947;28;20553;-64
2022/07/27 07:16:48;;;;;;;5.60;1.25;;;23.30;61.60;;;;;;4190462;28;20067;-63
2022/07/27 07:19:11;;;;;;;0.20;0.20;;;23.40;61.30;;;;;;4189157;28;20102;-64
2022/07/27 07:21:33;;;;;;;0.05;0.05;;;23.50;61.80;;;;;;4190691;28;20105;-63
2022/07/27 07:23:56;;;;;;;0.00;0.00;;;23.50;60.60;;;;;;4190680;28;20052;-64
2022/07/27 07:26:18;;;;;;;0.00;0.00;;;23.50;60.40;;;;;;4191246;28;20410;-64
2022/07/27 07:28:40;;;;;;;0.00;0.00;;;23.60;60.10;;;;;;4190214;28;20135;-64
2022/07/27 07:31:04;;;;;;;0.20;0.20;;;23.60;59.80;;;;;;4191451;28;20048;-64
2022/07/27 07:33:26;;;;;;;0.00;0.00;;;23.70;59.60;;;;;;4190566;28;20052;-64
2022/07/27 07:35:48;;;;;;;0.10;0.10;;;23.70;59.40;;;;;;4190884;28;20376;-63
2022/07/27 07:38:30;;;;;;;0.00;0.00;;;23.60;59.10;;;;;;4191244;28;20182;-64
2022/07/27 07:40:52;;;;;;;0.80;0.80;;;23.60;59.00;;;;;;4190977;28;20051;-64
2022/07/27 07:43:14;;;;;;;0.52;0.45;;;23.50;59.10;;;;;;4191034;28;20059;-64
2022/07/27 07:45:37;;;;;;;0.00;0.00;;;23.50;59.40;;;;;;4189104;28;20058;-64
2022/07/27 07:48:12;;;;;;;0.00;0.00;;;23.40;59.30;;;;;;4190096;28;20047;-63
2022/07/27 07:50:34;;;;;;;0.10;0.10;;;23.40;59.10;;;;;;4190274;28;20052;-64
2022/07/27 07:52:56;;;;;;;0.00;0.00;;;23.30;59.00;;;;;;4190526;28;20136;-64
2022/07/27 07:55:20;;;;;;;0.00;0.00;;;23.30;58.90;;;;;;4189813;28;20052;-64
2022/07/27 07:57:42;;;;;;;0.00;0.00;;;23.20;58.90;;;;;;4190797;28;20052;-63
2022/07/27 08:00:05;;;;;;;0.00;0.00;;;23.10;59.10;;;;;;4190556;28;20056;-63
2022/07/27 08:02:32;;;;;;;0.00;0.00;;;23.00;59.60;;;;;;4188868;28;20094;-63
2022/07/27 08:04:55;;;;;;;0.08;0.08;;;23.00;59.80;;;;;;4190588;28;20059;-63
2022/07/27 08:07:18;;;;;;;0.08;0.08;;;23.00;60.30;;;;;;4190264;28;20102;-64
2022/07/27 08:09:40;;;;;;;0.00;0.00;;;22.90;60.60;;;;;;4190172;28;20141;-63
2022/07/27 08:12:02;;;;;;;0.00;0.00;;;22.90;60.90;;;;;;4188914;28;20040;-63
2022/07/27 08:14:25;;;;;;;0.00;0.00;;;22.90;61.00;;;;;;4188723;28;20364;-63
2022/07/27 08:16:47;;;;;;;0.00;0.00;;;22.80;61.10;;;;;;4188620;28;20053;-63
2022/07/27 08:19:09;;;;;;;0.28;0.28;;;22.80;61.10;;;;;;4189906;28;20117;-63
2022/07/27 08:21:34;;;;;;;0.00;0.00;;;22.80;61.30;;;;;;4189889;28;20097;-64
2022/07/27 08:23:56;;;;;;;0.00;0.00;;;22.80;61.30;;;;;;4189724;28;20054;-63
2022/07/27 08:26:19;;;;;;;0.00;0.00;;;22.80;61.40;;;;;;4187409;28;20052;-64
2022/07/27 08:28:41;;;;;;;0.00;0.00;;;22.80;61.20;;;;;;4188413;28;20178;-64
2022/07/27 08:31:04;;;;;;;0.00;0.00;;;22.80;62.30;;;;;;4187887;28;20526;-68
2022/07/27 08:33:30;;;;;;;0.00;0.00;;;22.80;61.40;;;;;;4189434;28;20534;-64
2022/07/27 08:35:52;;;;;;;0.00;0.00;;;22.80;61.30;;;;;;4189891;28;20063;-64
2022/07/27 08:38:16;;;;;;;0.00;0.00;;;22.80;61.50;;;;;;4190321;28;20379;-63
2022/07/27 08:40:39;;;;;;;0.00;0.00;;;22.80;61.20;;;;;;4189156;28;20040;-64
2022/07/27 08:43:06;;;;;;;0.00;0.00;;;22.70;60.70;;;;;;4189375;28;20063;-64
2022/07/27 08:45:29;;;;;;;0.00;0.00;;;22.70;60.80;;;;;;4188993;28;20059;-64
2022/07/27 08:47:52;;;;;;;0.00;0.00;;;22.70;60.90;;;;;;4189368;28;20044;-64
2022/07/27 08:50:26;;;;;;;0.28;0.28;;;22.70;60.90;;;;;;4188468;28;20476;-64
2022/07/27 08:52:48;;;;;;;0.00;0.00;;;22.70;61.00;;;;;;4189308;28;20051;-64
2022/07/27 08:55:18;;;;;;;0.00;0.00;;;22.60;61.20;;;;;;4187459;28;20044;-63
2022/07/27 08:57:40;;;;;;;0.28;0.28;;;22.70;61.40;;;;;;4189619;28;20552;-63
2022/07/27 09:00:05;;;;;;;0.00;0.00;;;22.70;61.40;;;;;;4188843;28;20101;-63
2022/07/27 09:02:27;;;;;;;0.00;0.00;;;22.70;60.90;;;;;;4189032;28;20064;-64
2022/07/27 09:04:50;;;;;;;0.00;0.00;;;22.70;60.80;;;;;;4189700;28;20106;-63
2022/07/27 09:07:27;;;;;;;0.00;0.00;;;22.70;60.90;;;;;;4189142;28;20052;-64
2022/07/27 09:09:50;;;;;;;0.00;0.00;;;22.70;60.90;;;;;;4188468;28;20063;-64
2022/07/27 09:12:13;;;;;;;0.00;0.00;;;22.80;61.00;;;;;;4193673;28;20487;-64
2022/07/27 09:14:38;;;;;;;0.20;0.20;;;22.80;60.90;;;;;;4187997;28;20362;-64
2022/07/27 09:17:00;;;;;;;0.00;0.00;;;22.80;60.90;;;;;;4189223;28;20520;-63
2022/07/27 09:19:54;;;;;;;0.00;0.00;;;22.80;60.80;;;;;;4190018;28;20510;-63
2022/07/27 09:22:44;;;;;;;0.00;0.00;;;22.80;60.60;;;;;;4187787;28;20048;-63
2022/07/27 09:25:08;;;;;;;0.00;0.00;;;22.80;60.20;;;;;;4187635;28;20048;-64
2022/07/27 09:27:32;;;;;;;0.00;0.00;;;22.80;60.00;;;;;;4188535;28;20051;-65
2022/07/27 09:30:01;;;;;;;0.00;0.00;;;22.80;60.20;;;;;;4182469;28;20405;-63
2022/07/27 09:32:23;;;;;;;0.00;0.00;;;22.90;59.70;;;;;;4187387;28;20048;-64
2022/07/27 09:34:45;;;;;;;0.00;0.00;;;22.80;59.60;;;;;;4186504;28;20404;-64
2022/07/27 09:37:08;;;;;;;0.10;0.10;;;22.90;59.60;;;;;;4188837;28;20141;-65
2022/07/27 09:39:30;;;;;;;0.00;0.00;;;22.80;59.20;;;;;;4189180;28;20331;-64
2022/07/27 09:41:53;;;;;;;0.00;0.00;;;22.90;58.80;;;;;;4188966;28;20055;-64
2022/07/27 09:44:18;;;;;;;0.00;0.00;;;22.90;59.00;;;;;;4189018;28;20128;-64
2022/07/27 09:47:00;;;;;;;0.38;0.38;;;22.90;59.10;;;;;;4187497;28;20106;-64
2022/07/27 09:49:30;;;;;;;0.00;0.00;;;22.90;59.10;;;;;;4189610;28;20056;-64
2022/07/27 09:51:52;;;;;;;0.00;0.00;;;22.90;57.80;;;;;;4189155;28;20059;-64
2022/07/27 09:54:21;;;;;;;0.00;0.00;;;23.00;57.10;;;;;;4189003;28;20159;-64
2022/07/27 09:56:43;;;;;;;0.00;0.00;;;23.00;57.60;;;;;;4189540;28;20139;-63
2022/07/27 09:59:06;;;;;;;0.38;0.38;;;23.00;57.10;;;;;;4187449;28;20171;-64
2022/07/27 10:01:33;;;;;;;0.00;0.00;;;23.00;57.20;;;;;;4189479;28;20558;-64
2022/07/27 10:03:57;;;;;;;0.00;0.00;;;23.00;57.60;;;;;;4189022;28;20044;-64
2022/07/27 10:06:21;;;;;;;0.00;0.00;;;23.00;57.50;;;;;;4188986;28;20055;-64
2022/07/27 10:08:45;;;;;;;0.00;0.00;;;23.00;57.20;;;;;;4188459;28;20826;-65
2022/07/27 10:11:07;;;;;;;0.30;0.30;;;23.10;56.30;;;;;;4192041;28;20052;-63
2022/07/27 10:13:30;;;;;;;0.00;0.00;;;23.10;56.50;;;;;;4187756;28;20679;-63
2022/07/27 10:15:53;;;;;;;0.00;0.00;;;23.10;56.70;;;;;;4188813;28;20129;-64
2022/07/27 10:18:22;;;;;;;0.00;0.00;;;23.10;56.20;;;;;;4189198;28;20060;-62
2022/07/27 10:20:47;;;;;;;0.00;0.00;;;23.10;55.30;;;;;;4192338;28;20056;-63
2022/07/27 10:23:25;;;;;;;0.00;0.00;;;23.20;55.40;;;;;;4190243;28;20048;-64
2022/07/27 10:25:47;;;;;;;0.00;0.00;;;23.20;54.60;;;;;;4192275;28;20115;-63
2022/07/27 10:28:12;;;;;;;0.00;0.00;;;23.20;54.90;;;;;;4192255;28;20593;-63
2022/07/27 10:30:34;;;;;;;0.00;0.00;;;23.20;55.10;;;;;;4191773;28;20173;-63
2022/07/27 10:32:56;;;;;;;0.00;0.00;;;23.20;55.30;;;;;;4192349;28;20037;-63
2022/07/27 10:35:35;;;;;;;0.00;0.00;;;23.20;55.60;;;;;;4194100;28;20052;-63
2022/07/27 10:38:17;;;;;;;0.00;0.00;;;23.20;55.80;;;;;;4193056;28;20044;-63
2022/07/27 10:40:39;;;;;;;0.00;0.00;;;23.30;55.60;;;;;;4194760;28;20064;-63
2022/07/27 10:43:07;;;;;;;0.00;0.00;;;23.30;55.70;;;;;;4177508;28;20411;-63
2022/07/27 10:45:38;;;;;;;0.00;0.00;;;23.30;56.30;;;;;;4194724;28;20490;-63
2022/07/27 10:48:36;;;;;;;0.00;0.00;;;23.30;56.30;;;;;;4194498;28;20129;-63
2022/07/27 10:51:00;;;;;;;0.00;0.00;;;23.30;56.00;;;;;;4193237;28;20076;-63
2022/07/27 10:53:33;;;;;;;0.00;0.00;;;23.30;56.10;;;;;;4193735;28;20064;-62
2022/07/27 10:56:44;;;;;;;0.05;0.05;;;23.30;56.00;;;;;;4194499;28;20055;-62
2022/07/27 10:59:06;;;;;;;0.15;0.15;;;23.40;55.90;;;;;;4193014;28;20048;-62
2022/07/27 11:01:27;;;;;;;0.20;0.20;;;23.40;56.10;;;;;;4177434;28;20053;-63
2022/07/27 11:03:54;;;;;;;0.00;0.00;;;23.40;56.00;;;;;;4192310;28;20049;-64
2022/07/27 11:06:24;;;;;;;0.00;0.00;;;23.40;55.80;;;;;;4193768;28;20052;-68
2022/07/27 11:08:55;;;;;;;0.00;0.00;;;23.40;55.60;;;;;;4193189;28;20049;-69
2022/07/27 11:11:38;;;;;;;0.45;0.45;;;23.40;55.70;;;;;;4192452;28;20053;-69
2022/07/27 11:14:01;;;;;;;0.08;0.08;;;23.40;55.30;;;;;;4193727;28;20044;-69
2022/07/27 11:16:23;;;;;;;0.00;0.00;;;23.40;55.50;;;;;;4193984;28;20102;-64
2022/07/27 11:18:54;;;;;;;0.00;0.00;;;23.40;55.30;;;;;;4193825;28;20040;-64
2022/07/27 11:21:19;;;;;;;0.00;0.00;;;23.50;55.20;;;;;;4192460;28;20566;-64
2022/07/27 11:23:50;;;;;;;0.00;0.00;;;23.50;54.40;;;;;;4193066;28;20135;-64
2022/07/27 11:26:13;;;;;;;0.00;0.00;;;23.50;55.00;;;;;;4190133;28;20063;-69
2022/07/27 11:28:36;;;;;;;0.00;0.00;;;23.50;54.70;;;;;;4193356;28;20036;-67
2022/07/27 11:30:58;;;;;;;0.00;0.00;;;23.50;54.20;;;;;;4193560;28;20051;-67
2022/07/27 11:33:24;;;;;;;0.05;0.05;;;23.50;54.80;;;;;;4193681;28;20063;-68
2022/07/27 11:35:52;;;;;;;0.00;0.00;;;23.50;54.60;;;;;;4190917;28;20114;-70
2022/07/27 11:38:14;;;;;;;0.00;0.00;;;23.50;54.60;;;;;;4192985;28;20084;-68
2022/07/27 11:40:45;;;;;;;0.00;0.00;;;23.50;54.30;;;;;;4193610;28;20568;-68
2022/07/27 11:43:34;;;;;;;0.00;0.00;;;23.60;54.30;;;;;;4193520;28;20094;-68
2022/07/27 11:45:56;;;;;;;0.00;0.00;;;23.50;54.20;;;;;;4193246;28;20083;-68
2022/07/27 11:48:19;;;;;;;0.00;0.00;;;23.50;54.30;;;;;;4193554;28;20471;-68
2022/07/27 11:50:56;;;;;;;0.00;0.00;;;23.50;54.40;;;;;;4193383;28;20067;-68
2022/07/27 11:53:20;;;;;;;0.00;0.00;;;23.50;54.40;;;;;;4191604;28;20091;-68
2022/07/27 11:55:49;;;;;;;0.00;0.00;;;23.60;54.40;;;;;;4193144;28;20141;-68
2022/07/27 11:58:15;;;;;;;0.00;0.00;;;23.60;54.10;;;;;;4193447;28;21182;-68
2022/07/27 12:00:41;;;;;;;0.00;0.00;;;23.60;54.20;;;;;;4192878;28;20114;-68
2022/07/27 12:03:02;;;;;;;0.00;0.00;;;23.60;54.10;;;;;;4193249;28;20542;-63
2022/07/27 12:05:25;;;;;;;0.00;0.00;;;23.60;53.70;;;;;;4193059;28;20056;-64
2022/07/27 12:07:47;;;;;;;1.83;1.75;;;23.60;53.90;;;;;;4193058;28;20056;-63
2022/07/27 12:10:12;;;;;;;0.00;0.00;;;23.60;53.50;;;;;;4192453;28;20383;-64
2022/07/27 12:12:36;;;;;;;0.00;0.00;;;23.50;54.10;;;;;;4193307;28;20502;-64
2022/07/27 12:15:00;;;;;;;0.22;0.22;;;23.60;53.80;;;;;;4192506;28;20044;-63
2022/07/27 12:17:38;;;;;;;0.00;0.00;;;23.50;54.00;;;;;;4192748;28;20044;-64
2022/07/27 12:20:02;;;;;;;0.00;0.00;;;23.60;54.20;;;;;;4192588;28;20048;-64
2022/07/27 12:22:31;;;;;;;0.00;0.00;;;23.60;53.60;;;;;;4190656;28;20230;-64
2022/07/27 12:24:54;;;;;;;0.00;0.00;;;23.60;54.00;;;;;;4192349;28;20437;-63
2022/07/27 12:27:16;;;;;;;0.00;0.00;;;23.60;54.80;;;;;;4192788;28;20136;-63
2022/07/27 12:29:55;;;;;;;0.00;0.00;;;23.60;53.40;;;;;;4192458;28;20470;-63
2022/07/27 12:32:18;;;;;;;0.00;0.00;;;23.60;54.20;;;;;;4192624;28;20136;-64
2022/07/27 12:34:40;;;;;;;0.00;0.00;;;23.60;54.40;;;;;;4191056;28;20435;-65
2022/07/27 12:37:10;;;;;;;0.00;0.00;;;23.60;54.30;;;;;;4192348;28;20497;-64
2022/07/27 12:39:33;;;;;;;0.00;0.00;;;23.70;54.40;;;;;;4175954;28;20051;-63
2022/07/27 12:42:06;;;;;;;0.00;0.00;;;23.70;53.80;;;;;;4191979;28;20449;-63